sensor_id;sensor_type;location;lat;lon;timestamp;pressure;altitude;pressure_sealevel;temperature;humidity
64139;BME280;50435;43.700;-79.318;2023-04-19T00:00:04;99725.19;;;6.97;42.31
64139;BME280;50435;43.700;-79.318;2023-04-19T00:02:32;99730.73;;;6.50;42.77
64139;BME280;50435;43.700;-79.318;2023-04-19T00:04:59;99731.41;;;5.25;42.89
64139;BME280;50435;43.700;-79.318;2023-04-19T00:07:26;99734.75;;;6.08;43.21
64139;BME280;50435;43.700;-79.318;2023-04-19T00:09:53;99743.87;;;5.96;42.52
64139;BME280;50435;43.700;-79.318;2023-04-19T00:12:21;99739.83;;;6.38;42.71
64139;BME280;50435;43.700;-79.318;2023-04-19T00:14:49;99748.37;;;4.91;42.95
64139;BME280;50435;43.700;-79.318;2023-04-19T00:17:17;99749.00;;;6.15;43.18
64139;BME280;50435;43.700;-79.318;2023-04-19T00:19:44;99750.14;;;5.24;42.85
64139;BME280;50435;43.700;-79.318;2023-04-19T00:22:11;99757.79;;;6.18;42.76
64139;BME280;50435;43.700;-79.318;2023-04-19T00:24:38;99757.69;;;6.15;42.59
64139;BME280;50435;43.700;-79.318;2023-04-19T00:27:05;99767.28;;;6.19;42.70
64139;BME280;50435;43.700;-79.318;2023-04-19T00:29:33;99772.88;;;5.96;43.03
64139;BME280;50435;43.700;-79.318;2023-04-19T00:32:01;99775.94;;;5.47;43.11
64139;BME280;50435;43.700;-79.318;2023-04-19T00:34:28;99785.03;;;5.85;43.26
64139;BME280;50435;43.700;-79.318;2023-04-19T00:36:56;99791.90;;;5.31;43.64
64139;BME280;50435;43.700;-79.318;2023-04-19T00:39:23;99799.58;;;5.90;43.75
64139;BME280;50435;43.700;-79.318;2023-04-19T00:41:50;99808.61;;;3.94;43.66
64139;BME280;50435;43.700;-79.318;2023-04-19T00:44:18;99812.27;;;5.72;43.47
64139;BME280;50435;43.700;-79.318;2023-04-19T00:46:46;99818.95;;;4.62;43.73
64139;BME280;50435;43.700;-79.318;2023-04-19T00:49:14;99825.23;;;5.71;43.67
64139;BME280;50435;43.700;-79.318;2023-04-19T00:51:42;99822.44;;;5.10;43.60
64139;BME280;50435;43.700;-79.318;2023-04-19T00:54:10;99823.55;;;5.93;43.42
64139;BME280;50435;43.700;-79.318;2023-04-19T00:56:39;99823.76;;;4.89;43.64
64139;BME280;50435;43.700;-79.318;2023-04-19T00:59:06;99826.04;;;5.54;43.76
64139;BME280;50435;43.700;-79.318;2023-04-19T01:01:34;99834.15;;;5.82;44.22
64139;BME280;50435;43.700;-79.318;2023-04-19T01:04:01;99840.91;;;5.48;43.84
64139;BME280;50435;43.700;-79.318;2023-04-19T01:06:29;99844.04;;;5.78;44.41
64139;BME280;50435;43.700;-79.318;2023-04-19T01:08:57;99852.75;;;4.86;44.29
64139;BME280;50435;43.700;-79.318;2023-04-19T01:11:24;99854.21;;;5.48;43.87
64139;BME280;50435;43.700;-79.318;2023-04-19T01:13:53;99856.72;;;4.76;44.23
64139;BME280;50435;43.700;-79.318;2023-04-19T01:16:21;99859.72;;;5.32;44.60
64139;BME280;50435;43.700;-79.318;2023-04-19T01:18:49;99862.47;;;3.86;44.66
64139;BME280;50435;43.700;-79.318;2023-04-19T01:21:16;99865.24;;;5.25;44.41
64139;BME280;50435;43.700;-79.318;2023-04-19T01:23:44;99869.23;;;4.72;44.24
64139;BME280;50435;43.700;-79.318;2023-04-19T01:26:11;99877.78;;;4.93;44.94
64139;BME280;50435;43.700;-79.318;2023-04-19T01:28:38;99879.66;;;5.09;45.01
64139;BME280;50435;43.700;-79.318;2023-04-19T01:31:05;99885.72;;;4.79;45.20
64139;BME280;50435;43.700;-79.318;2023-04-19T01:33:33;99888.48;;;5.16;45.48
64139;BME280;50435;43.700;-79.318;2023-04-19T01:36:00;99891.26;;;4.95;44.84
64139;BME280;50435;43.700;-79.318;2023-04-19T01:38:27;99891.00;;;5.12;44.91
64139;BME280;50435;43.700;-79.318;2023-04-19T01:40:54;99890.31;;;4.32;45.19
64139;BME280;50435;43.700;-79.318;2023-04-19T01:43:22;99889.70;;;5.30;45.18
64139;BME280;50435;43.700;-79.318;2023-04-19T01:45:49;99894.77;;;3.88;45.04
64139;BME280;50435;43.700;-79.318;2023-04-19T01:48:17;99894.48;;;5.02;45.13
64139;BME280;50435;43.700;-79.318;2023-04-19T01:50:44;99897.57;;;4.36;45.04
64139;BME280;50435;43.700;-79.318;2023-04-19T01:53:11;99903.61;;;5.27;45.06
64139;BME280;50435;43.700;-79.318;2023-04-19T01:55:39;99902.78;;;5.20;45.15
64139;BME280;50435;43.700;-79.318;2023-04-19T01:58:06;99903.17;;;4.85;45.22
64139;BME280;50435;43.700;-79.318;2023-04-19T02:00:33;99904.06;;;5.16;45.28
64139;BME280;50435;43.700;-79.318;2023-04-19T02:03:00;99907.27;;;4.80;44.97
64139;BME280;50435;43.700;-79.318;2023-04-19T02:05:28;99899.10;;;5.20;45.16
64139;BME280;50435;43.700;-79.318;2023-04-19T02:07:55;99905.36;;;4.44;44.94
64139;BME280;50435;43.700;-79.318;2023-04-19T02:10:23;99911.17;;;4.89;44.95
64139;BME280;50435;43.700;-79.318;2023-04-19T02:12:51;99912.28;;;3.56;44.83
64139;BME280;50435;43.700;-79.318;2023-04-19T02:15:18;99913.67;;;5.31;44.53
64139;BME280;50435;43.700;-79.318;2023-04-19T02:17:46;99913.39;;;4.71;44.87
64139;BME280;50435;43.700;-79.318;2023-04-19T02:20:13;99911.14;;;4.59;44.94
64139;BME280;50435;43.700;-79.318;2023-04-19T02:22:40;99911.62;;;5.53;44.99
64139;BME280;50435;43.700;-79.318;2023-04-19T02:25:08;99917.01;;;5.08;45.01
64139;BME280;50435;43.700;-79.318;2023-04-19T02:27:35;99922.76;;;5.03;44.95
64139;BME280;50435;43.700;-79.318;2023-04-19T02:30:04;99924.48;;;4.42;45.25
64139;BME280;50435;43.700;-79.318;2023-04-19T02:32:31;99925.64;;;5.08;44.93
64139;BME280;50435;43.700;-79.318;2023-04-19T02:34:59;99926.11;;;4.65;44.88
64139;BME280;50435;43.700;-79.318;2023-04-19T02:37:26;99932.16;;;5.23;44.58
64139;BME280;50435;43.700;-79.318;2023-04-19T02:39:53;99932.30;;;4.59;44.77
64139;BME280;50435;43.700;-79.318;2023-04-19T02:42:21;99936.72;;;4.86;44.82
64139;BME280;50435;43.700;-79.318;2023-04-19T02:44:48;99945.61;;;3.66;44.66
64139;BME280;50435;43.700;-79.318;2023-04-19T02:47:15;99949.60;;;5.02;44.95
64139;BME280;50435;43.700;-79.318;2023-04-19T02:49:42;99947.14;;;4.48;45.08
64139;BME280;50435;43.700;-79.318;2023-04-19T02:52:09;99948.84;;;4.84;45.45
64139;BME280;50435;43.700;-79.318;2023-04-19T02:54:37;99951.69;;;4.97;45.12
64139;BME280;50435;43.700;-79.318;2023-04-19T02:57:04;99949.69;;;4.90;45.23
64139;BME280;50435;43.700;-79.318;2023-04-19T02:59:31;99952.03;;;5.45;44.93
64139;BME280;50435;43.700;-79.318;2023-04-19T03:01:59;99949.20;;;4.58;44.97
64139;BME280;50435;43.700;-79.318;2023-04-19T03:04:26;99946.25;;;5.15;45.26
64139;BME280;50435;43.700;-79.318;2023-04-19T03:06:53;99946.82;;;4.41;45.16
64139;BME280;50435;43.700;-79.318;2023-04-19T03:09:20;99948.06;;;4.88;45.00
64139;BME280;50435;43.700;-79.318;2023-04-19T03:11:47;99945.11;;;3.61;44.86
64139;BME280;50435;43.700;-79.318;2023-04-19T03:14:15;99946.21;;;5.01;44.95
64139;BME280;50435;43.700;-79.318;2023-04-19T03:16:42;99949.06;;;4.45;45.01
64139;BME280;50435;43.700;-79.318;2023-04-19T03:19:09;99943.95;;;4.43;45.20
64139;BME280;50435;43.700;-79.318;2023-04-19T03:21:36;99940.47;;;5.02;44.79
64139;BME280;50435;43.700;-79.318;2023-04-19T03:24:04;99939.86;;;5.09;44.64
64139;BME280;50435;43.700;-79.318;2023-04-19T03:26:32;99938.79;;;5.12;44.66
64139;BME280;50435;43.700;-79.318;2023-04-19T03:29:00;99942.37;;;4.80;44.55
64139;BME280;50435;43.700;-79.318;2023-04-19T03:31:27;99946.76;;;5.11;44.60
64139;BME280;50435;43.700;-79.318;2023-04-19T03:33:54;99945.27;;;4.41;44.55
64139;BME280;50435;43.700;-79.318;2023-04-19T03:36:22;99945.92;;;5.05;44.69
64139;BME280;50435;43.700;-79.318;2023-04-19T03:38:49;99944.83;;;3.51;44.99
64139;BME280;50435;43.700;-79.318;2023-04-19T03:41:18;99943.01;;;5.18;44.49
64139;BME280;50435;43.700;-79.318;2023-04-19T03:43:46;99946.43;;;3.93;44.70
64139;BME280;50435;43.700;-79.318;2023-04-19T03:46:13;99947.98;;;5.10;44.63
64139;BME280;50435;43.700;-79.318;2023-04-19T03:48:40;99946.73;;;5.24;44.36
64139;BME280;50435;43.700;-79.318;2023-04-19T03:51:08;99947.44;;;4.81;44.59
64139;BME280;50435;43.700;-79.318;2023-04-19T03:53:35;99955.19;;;5.10;44.53
64139;BME280;50435;43.700;-79.318;2023-04-19T03:56:04;99958.99;;;4.68;44.31
64139;BME280;50435;43.700;-79.318;2023-04-19T03:58:31;99959.91;;;5.30;44.23
64139;BME280;50435;43.700;-79.318;2023-04-19T04:00:59;99959.12;;;4.34;44.57
64139;BME280;50435;43.700;-79.318;2023-04-19T04:03:26;99962.48;;;5.18;44.43
64139;BME280;50435;43.700;-79.318;2023-04-19T04:05:54;99964.69;;;3.65;44.12
64139;BME280;50435;43.700;-79.318;2023-04-19T04:08:21;99966.61;;;5.26;44.03
64139;BME280;50435;43.700;-79.318;2023-04-19T04:10:48;99965.28;;;3.69;44.30
64139;BME280;50435;43.700;-79.318;2023-04-19T04:13:16;99967.18;;;5.22;44.03
64139;BME280;50435;43.700;-79.318;2023-04-19T04:15:43;99965.17;;;4.82;44.06
64139;BME280;50435;43.700;-79.318;2023-04-19T04:18:10;99969.70;;;5.03;44.15
64139;BME280;50435;43.700;-79.318;2023-04-19T04:20:37;99967.30;;;5.49;43.69
64139;BME280;50435;43.700;-79.318;2023-04-19T04:23:05;99962.15;;;4.83;43.99
64139;BME280;50435;43.700;-79.318;2023-04-19T04:25:32;99972.46;;;5.03;44.14
64139;BME280;50435;43.700;-79.318;2023-04-19T04:27:59;99972.61;;;4.71;44.30
64139;BME280;50435;43.700;-79.318;2023-04-19T04:30:26;99977.94;;;5.23;44.09
64139;BME280;50435;43.700;-79.318;2023-04-19T04:32:53;99980.42;;;3.65;44.28
64139;BME280;50435;43.700;-79.318;2023-04-19T04:35:21;99985.93;;;5.37;43.90
64139;BME280;50435;43.700;-79.318;2023-04-19T04:37:48;99985.30;;;3.65;43.79
64139;BME280;50435;43.700;-79.318;2023-04-19T04:40:15;99983.27;;;5.23;44.06
64139;BME280;50435;43.700;-79.318;2023-04-19T04:42:42;99984.41;;;4.66;43.59
64139;BME280;50435;43.700;-79.318;2023-04-19T04:45:10;99985.64;;;4.83;43.82
64139;BME280;50435;43.700;-79.318;2023-04-19T04:47:38;99990.67;;;5.25;43.96
64139;BME280;50435;43.700;-79.318;2023-04-19T04:50:06;99990.47;;;4.93;43.68
64139;BME280;50435;43.700;-79.318;2023-04-19T04:52:34;99995.77;;;5.36;43.69
64139;BME280;50435;43.700;-79.318;2023-04-19T04:55:01;100000.00;;;4.92;43.69
64139;BME280;50435;43.700;-79.318;2023-04-19T04:57:29;99999.51;;;5.46;43.46
64139;BME280;50435;43.700;-79.318;2023-04-19T04:59:56;100000.14;;;4.98;43.46
64139;BME280;50435;43.700;-79.318;2023-04-19T05:02:23;100005.22;;;5.16;43.63
64139;BME280;50435;43.700;-79.318;2023-04-19T05:04:50;100005.81;;;4.06;43.35
64139;BME280;50435;43.700;-79.318;2023-04-19T05:07:18;100008.10;;;5.46;43.42
64139;BME280;50435;43.700;-79.318;2023-04-19T05:09:45;100007.02;;;4.53;43.39
64139;BME280;50435;43.700;-79.318;2023-04-19T05:12:12;100009.15;;;5.45;43.37
64139;BME280;50435;43.700;-79.318;2023-04-19T05:14:39;100015.77;;;5.56;43.19
64139;BME280;50435;43.700;-79.318;2023-04-19T05:17:06;100019.29;;;5.58;43.19
64139;BME280;50435;43.700;-79.318;2023-04-19T05:19:34;100018.97;;;5.56;43.16
64139;BME280;50435;43.700;-79.318;2023-04-19T05:22:02;100018.27;;;5.59;43.14
64139;BME280;50435;43.700;-79.318;2023-04-19T05:24:29;100023.42;;;5.42;43.27
64139;BME280;50435;43.700;-79.318;2023-04-19T05:26:56;100029.36;;;4.38;43.45
64139;BME280;50435;43.700;-79.318;2023-04-19T05:29:24;100029.22;;;5.47;43.23
64139;BME280;50435;43.700;-79.318;2023-04-19T05:31:51;100028.34;;;3.70;43.36
64139;BME280;50435;43.700;-79.318;2023-04-19T05:34:18;100031.81;;;5.37;43.32
64139;BME280;50435;43.700;-79.318;2023-04-19T05:36:45;100031.15;;;3.84;43.49
64139;BME280;50435;43.700;-79.318;2023-04-19T05:39:12;100023.95;;;5.27;43.76
64139;BME280;50435;43.700;-79.318;2023-04-19T05:41:40;100025.97;;;5.19;43.66
64139;BME280;50435;43.700;-79.318;2023-04-19T05:44:07;100027.16;;;5.14;43.32
64139;BME280;50435;43.700;-79.318;2023-04-19T05:46:34;100031.08;;;5.54;43.01
64139;BME280;50435;43.700;-79.318;2023-04-19T05:49:02;100039.60;;;4.37;43.25
64139;BME280;50435;43.700;-79.318;2023-04-19T05:51:29;100041.96;;;5.50;42.99
64139;BME280;50435;43.700;-79.318;2023-04-19T05:53:56;100041.10;;;3.30;43.59
64139;BME280;50435;43.700;-79.318;2023-04-19T05:56:23;100054.54;;;5.27;43.39
64139;BME280;50435;43.700;-79.318;2023-04-19T05:58:50;100045.79;;;3.84;43.40
64139;BME280;50435;43.700;-79.318;2023-04-19T06:01:18;100048.32;;;5.56;43.27
64139;BME280;50435;43.700;-79.318;2023-04-19T06:03:45;100058.06;;;4.45;43.12
64139;BME280;50435;43.700;-79.318;2023-04-19T06:06:12;100056.70;;;5.31;43.36
64139;BME280;50435;43.700;-79.318;2023-04-19T06:08:39;100060.81;;;5.06;43.63
64139;BME280;50435;43.700;-79.318;2023-04-19T06:11:06;100054.29;;;5.11;43.56
64139;BME280;50435;43.700;-79.318;2023-04-19T06:13:34;100056.34;;;5.34;43.21
64139;BME280;50435;43.700;-79.318;2023-04-19T06:16:01;100062.92;;;4.70;43.52
64139;BME280;50435;43.700;-79.318;2023-04-19T06:18:29;100064.03;;;5.20;43.47
64139;BME280;50435;43.700;-79.318;2023-04-19T06:20:57;100056.94;;;4.21;44.00
64139;BME280;50435;43.700;-79.318;2023-04-19T06:23:24;100058.05;;;5.19;43.50
64139;BME280;50435;43.700;-79.318;2023-04-19T06:25:52;100053.60;;;4.47;43.44
64139;BME280;50435;43.700;-79.318;2023-04-19T06:28:19;100059.77;;;5.30;43.23
64139;BME280;50435;43.700;-79.318;2023-04-19T06:30:47;100054.14;;;3.86;43.11
64139;BME280;50435;43.700;-79.318;2023-04-19T06:33:14;100057.26;;;5.25;43.28
64139;BME280;50435;43.700;-79.318;2023-04-19T06:35:41;100063.31;;;5.17;43.00
64139;BME280;50435;43.700;-79.318;2023-04-19T06:38:09;100063.47;;;5.12;43.11
64139;BME280;50435;43.700;-79.318;2023-04-19T06:40:36;100061.27;;;5.36;43.15
64139;BME280;50435;43.700;-79.318;2023-04-19T06:43:03;100062.90;;;5.36;43.02
64139;BME280;50435;43.700;-79.318;2023-04-19T06:45:30;100074.88;;;5.10;43.53
64139;BME280;50435;43.700;-79.318;2023-04-19T06:47:58;100068.67;;;4.93;43.30
64139;BME280;50435;43.700;-79.318;2023-04-19T06:50:25;100072.75;;;5.08;43.40
64139;BME280;50435;43.700;-79.318;2023-04-19T06:52:52;100073.49;;;3.31;43.63
64139;BME280;50435;43.700;-79.318;2023-04-19T06:55:20;100071.98;;;4.92;43.78
64139;BME280;50435;43.700;-79.318;2023-04-19T06:57:48;100080.84;;;4.12;43.39
64139;BME280;50435;43.700;-79.318;2023-04-19T07:00:16;100077.95;;;5.07;43.57
64139;BME280;50435;43.700;-79.318;2023-04-19T07:02:44;100083.73;;;4.34;43.30
64139;BME280;50435;43.700;-79.318;2023-04-19T07:05:11;100083.85;;;5.00;43.54
64139;BME280;50435;43.700;-79.318;2023-04-19T07:07:38;100085.45;;;5.52;43.31
64139;BME280;50435;43.700;-79.318;2023-04-19T07:10:07;100084.26;;;4.61;43.25
64139;BME280;50435;43.700;-79.318;2023-04-19T07:12:34;100090.69;;;5.33;43.40
64139;BME280;50435;43.700;-79.318;2023-04-19T07:15:02;100090.77;;;4.39;43.31
64139;BME280;50435;43.700;-79.318;2023-04-19T07:17:29;100090.47;;;5.33;43.29
64139;BME280;50435;43.700;-79.318;2023-04-19T07:19:56;100093.80;;;4.36;43.75
64139;BME280;50435;43.700;-79.318;2023-04-19T07:22:24;100095.86;;;4.94;43.64
64139;BME280;50435;43.700;-79.318;2023-04-19T07:24:52;100094.11;;;3.89;43.92
64139;BME280;50435;43.700;-79.318;2023-04-19T07:27:20;100095.72;;;5.02;43.67
64139;BME280;50435;43.700;-79.318;2023-04-19T07:29:47;100088.61;;;3.63;43.28
64139;BME280;50435;43.700;-79.318;2023-04-19T07:32:14;100095.11;;;5.04;43.32
64139;BME280;50435;43.700;-79.318;2023-04-19T07:34:41;100089.60;;;4.94;43.54
64139;BME280;50435;43.700;-79.318;2023-04-19T07:37:09;100093.01;;;4.77;43.31
64139;BME280;50435;43.700;-79.318;2023-04-19T07:39:36;100089.89;;;5.03;43.37
64139;BME280;50435;43.700;-79.318;2023-04-19T07:42:03;100090.60;;;5.03;43.45
64139;BME280;50435;43.700;-79.318;2023-04-19T07:44:31;100093.46;;;4.94;43.93
64139;BME280;50435;43.700;-79.318;2023-04-19T07:46:58;100096.13;;;4.16;43.67
64139;BME280;50435;43.700;-79.318;2023-04-19T07:49:26;100100.63;;;5.03;43.53
64139;BME280;50435;43.700;-79.318;2023-04-19T07:51:53;100101.12;;;3.90;43.60
64139;BME280;50435;43.700;-79.318;2023-04-19T07:54:20;100101.34;;;5.01;43.16
64139;BME280;50435;43.700;-79.318;2023-04-19T07:56:47;100108.82;;;3.87;43.45
64139;BME280;50435;43.700;-79.318;2023-04-19T07:59:15;100109.96;;;4.67;43.32
64139;BME280;50435;43.700;-79.318;2023-04-19T08:01:42;100108.80;;;4.47;43.17
64139;BME280;50435;43.700;-79.318;2023-04-19T08:04:09;100109.77;;;5.02;43.18
64139;BME280;50435;43.700;-79.318;2023-04-19T08:06:37;100115.88;;;4.97;43.21
64139;BME280;50435;43.700;-79.318;2023-04-19T08:09:04;100121.68;;;4.90;43.38
64139;BME280;50435;43.700;-79.318;2023-04-19T08:11:31;100124.26;;;4.79;43.70
64139;BME280;50435;43.700;-79.318;2023-04-19T08:13:59;100124.64;;;4.09;43.09
64139;BME280;50435;43.700;-79.318;2023-04-19T08:16:26;100128.57;;;4.99;43.21
64139;BME280;50435;43.700;-79.318;2023-04-19T08:18:53;100138.74;;;3.89;43.31
64139;BME280;50435;43.700;-79.318;2023-04-19T08:21:20;100135.39;;;4.71;43.28
64139;BME280;50435;43.700;-79.318;2023-04-19T08:23:48;100145.27;;;3.94;43.33
64139;BME280;50435;43.700;-79.318;2023-04-19T08:26:15;100143.89;;;4.83;43.67
64139;BME280;50435;43.700;-79.318;2023-04-19T08:28:42;100138.09;;;4.27;43.68
64139;BME280;50435;43.700;-79.318;2023-04-19T08:31:09;100141.70;;;4.75;43.72
64139;BME280;50435;43.700;-79.318;2023-04-19T08:33:37;100142.32;;;5.19;43.26
64139;BME280;50435;43.700;-79.318;2023-04-19T08:36:04;100137.76;;;4.70;43.81
64139;BME280;50435;43.700;-79.318;2023-04-19T08:38:32;100135.78;;;5.07;43.58
64139;BME280;50435;43.700;-79.318;2023-04-19T08:41:00;100133.02;;;4.33;44.03
64139;BME280;50435;43.700;-79.318;2023-04-19T08:43:29;100138.67;;;5.04;44.00
64139;BME280;50435;43.700;-79.318;2023-04-19T08:45:57;100141.58;;;3.77;44.27
64139;BME280;50435;43.700;-79.318;2023-04-19T08:48:26;100139.53;;;4.93;43.86
64139;BME280;50435;43.700;-79.318;2023-04-19T08:50:55;100138.15;;;4.17;43.87
64139;BME280;50435;43.700;-79.318;2023-04-19T08:53:24;100149.70;;;4.82;43.94
64139;BME280;50435;43.700;-79.318;2023-04-19T08:55:54;100151.30;;;3.54;44.18
64139;BME280;50435;43.700;-79.318;2023-04-19T08:58:22;100155.76;;;4.69;43.74
64139;BME280;50435;43.700;-79.318;2023-04-19T09:00:49;100157.67;;;3.59;43.96
64139;BME280;50435;43.700;-79.318;2023-04-19T09:03:18;100157.64;;;4.83;43.88
64139;BME280;50435;43.700;-79.318;2023-04-19T09:05:45;100157.70;;;3.99;44.10
64139;BME280;50435;43.700;-79.318;2023-04-19T09:08:27;100166.76;;;4.38;44.23
64139;BME280;50435;43.700;-79.318;2023-04-19T09:10:56;100170.45;;;4.00;44.06
64139;BME280;50435;43.700;-79.318;2023-04-19T09:13:24;100168.60;;;4.46;44.55
64139;BME280;50435;43.700;-79.318;2023-04-19T09:15:52;100176.79;;;2.99;44.01
64139;BME280;50435;43.700;-79.318;2023-04-19T09:18:20;100176.34;;;4.68;44.13
64139;BME280;50435;43.700;-79.318;2023-04-19T09:20:47;100169.00;;;3.17;44.19
64139;BME280;50435;43.700;-79.318;2023-04-19T09:23:16;100183.39;;;4.81;44.22
64139;BME280;50435;43.700;-79.318;2023-04-19T09:25:52;100183.47;;;3.43;44.00
64139;BME280;50435;43.700;-79.318;2023-04-19T09:28:20;100187.81;;;4.43;43.94
64139;BME280;50435;43.700;-79.318;2023-04-19T09:30:47;100190.53;;;3.47;43.88
64139;BME280;50435;43.700;-79.318;2023-04-19T09:33:30;100192.18;;;4.42;43.92
64139;BME280;50435;43.700;-79.318;2023-04-19T09:35:59;100198.59;;;3.94;43.90
64139;BME280;50435;43.700;-79.318;2023-04-19T09:38:26;100206.52;;;4.69;44.51
64139;BME280;50435;43.700;-79.318;2023-04-19T09:41:05;100207.98;;;2.76;44.33
64139;BME280;50435;43.700;-79.318;2023-04-19T09:43:33;100213.70;;;4.56;44.16
64139;BME280;50435;43.700;-79.318;2023-04-19T09:46:01;100218.49;;;3.90;44.16
64139;BME280;50435;43.700;-79.318;2023-04-19T09:48:28;100216.14;;;4.58;44.08
64139;BME280;50435;43.700;-79.318;2023-04-19T09:50:57;100216.20;;;3.58;44.10
64139;BME280;50435;43.700;-79.318;2023-04-19T09:53:25;100216.16;;;4.68;44.18
64139;BME280;50435;43.700;-79.318;2023-04-19T09:55:53;100222.94;;;3.51;44.17
64139;BME280;50435;43.700;-79.318;2023-04-19T09:58:21;100225.49;;;4.43;44.50
64139;BME280;50435;43.700;-79.318;2023-04-19T10:00:48;100231.58;;;2.71;44.56
64139;BME280;50435;43.700;-79.318;2023-04-19T10:03:17;100231.48;;;4.56;44.14
64139;BME280;50435;43.700;-79.318;2023-04-19T10:05:45;100233.44;;;3.12;44.34
64139;BME280;50435;43.700;-79.318;2023-04-19T10:08:13;100231.35;;;4.33;44.12
64139;BME280;50435;43.700;-79.318;2023-04-19T10:10:44;100226.42;;;4.16;44.35
64139;BME280;50435;43.700;-79.318;2023-04-19T10:13:15;100235.33;;;4.09;44.14
64139;BME280;50435;43.700;-79.318;2023-04-19T10:15:44;100235.00;;;3.75;43.63
64139;BME280;50435;43.700;-79.318;2023-04-19T10:18:12;100234.89;;;4.60;43.84
64139;BME280;50435;43.700;-79.318;2023-04-19T10:20:48;100236.88;;;4.30;44.07
64139;BME280;50435;43.700;-79.318;2023-04-19T10:23:19;100235.02;;;4.55;43.63
64139;BME280;50435;43.700;-79.318;2023-04-19T10:25:47;100233.30;;;3.15;43.64
64139;BME280;50435;43.700;-79.318;2023-04-19T10:28:15;100244.21;;;4.24;43.98
64139;BME280;50435;43.700;-79.318;2023-04-19T10:31:00;100251.43;;;3.74;43.99
64139;BME280;50435;43.700;-79.318;2023-04-19T10:33:29;100250.19;;;4.51;43.75
64139;BME280;50435;43.700;-79.318;2023-04-19T10:35:57;100249.94;;;3.96;44.00
64139;BME280;50435;43.700;-79.318;2023-04-19T10:38:43;100261.05;;;4.47;43.61
64139;BME280;50435;43.700;-79.318;2023-04-19T10:41:11;100264.63;;;4.20;43.78
64139;BME280;50435;43.700;-79.318;2023-04-19T10:43:38;100273.19;;;4.46;43.41
64139;BME280;50435;43.700;-79.318;2023-04-19T10:46:08;100277.17;;;4.26;43.87
64139;BME280;50435;43.700;-79.318;2023-04-19T10:48:38;100284.14;;;4.36;43.91
64139;BME280;50435;43.700;-79.318;2023-04-19T10:51:13;100289.51;;;4.44;43.48
64139;BME280;50435;43.700;-79.318;2023-04-19T10:53:46;100295.48;;;4.83;43.27
64139;BME280;50435;43.700;-79.318;2023-04-19T10:56:15;100299.85;;;4.21;42.98
64139;BME280;50435;43.700;-79.318;2023-04-19T10:59:16;100304.66;;;3.75;43.02
64139;BME280;50435;43.700;-79.318;2023-04-19T11:01:45;100306.25;;;3.63;43.15
64139;BME280;50435;43.700;-79.318;2023-04-19T11:04:14;100319.55;;;4.39;43.53
64139;BME280;50435;43.700;-79.318;2023-04-19T11:06:59;100322.49;;;4.15;43.03
64139;BME280;50435;43.700;-79.318;2023-04-19T11:09:29;100314.39;;;4.53;42.78
64139;BME280;50435;43.700;-79.318;2023-04-19T11:11:58;100328.70;;;3.67;42.79
64139;BME280;50435;43.700;-79.318;2023-04-19T11:14:27;100354.49;;;4.67;42.78
64139;BME280;50435;43.700;-79.318;2023-04-19T11:16:56;100361.64;;;3.08;43.25
64139;BME280;50435;43.700;-79.318;2023-04-19T11:19:23;100360.88;;;4.45;42.84
64139;BME280;50435;43.700;-79.318;2023-04-19T11:21:50;100376.29;;;2.49;43.22
64139;BME280;50435;43.700;-79.318;2023-04-19T11:24:18;100379.49;;;4.42;43.32
64139;BME280;50435;43.700;-79.318;2023-04-19T11:26:46;100401.51;;;3.21;43.65
64139;BME280;50435;43.700;-79.318;2023-04-19T11:29:14;100415.42;;;4.54;42.76
64139;BME280;50435;43.700;-79.318;2023-04-19T11:31:43;100423.55;;;4.42;42.93
64139;BME280;50435;43.700;-79.318;2023-04-19T11:34:11;100417.62;;;4.39;42.61
64139;BME280;50435;43.700;-79.318;2023-04-19T11:36:49;100402.22;;;2.83;44.02
64139;BME280;50435;43.700;-79.318;2023-04-19T11:39:17;100412.06;;;4.51;42.98
64139;BME280;50435;43.700;-79.318;2023-04-19T11:41:45;100420.15;;;3.66;42.75
64139;BME280;50435;43.700;-79.318;2023-04-19T11:44:14;100420.89;;;4.58;42.24
64139;BME280;50435;43.700;-79.318;2023-04-19T11:46:41;100436.32;;;4.63;42.66
64139;BME280;50435;43.700;-79.318;2023-04-19T11:49:09;100439.85;;;4.52;42.96
64139;BME280;50435;43.700;-79.318;2023-04-19T11:51:41;100447.61;;;4.40;43.07
64139;BME280;50435;43.700;-79.318;2023-04-19T11:54:13;100462.22;;;4.35;42.63
64139;BME280;50435;43.700;-79.318;2023-04-19T11:56:57;100451.47;;;4.91;42.51
64139;BME280;50435;43.700;-79.318;2023-04-19T11:59:24;100450.78;;;4.55;42.79
64139;BME280;50435;43.700;-79.318;2023-04-19T12:01:52;100454.43;;;3.69;42.95
64139;BME280;50435;43.700;-79.318;2023-04-19T12:04:19;100464.51;;;4.45;42.41
64139;BME280;50435;43.700;-79.318;2023-04-19T12:06:56;100473.55;;;3.10;41.84
64139;BME280;50435;43.700;-79.318;2023-04-19T12:09:24;100483.12;;;4.53;42.14
64139;BME280;50435;43.700;-79.318;2023-04-19T12:11:52;100484.40;;;2.70;42.17
64139;BME280;50435;43.700;-79.318;2023-04-19T12:14:21;100488.22;;;4.60;42.46
64139;BME280;50435;43.700;-79.318;2023-04-19T12:17:07;100500.51;;;3.00;42.97
64139;BME280;50435;43.700;-79.318;2023-04-19T12:19:36;100510.90;;;4.79;41.72
64139;BME280;50435;43.700;-79.318;2023-04-19T12:22:08;100521.02;;;4.24;42.07
64139;BME280;50435;43.700;-79.318;2023-04-19T12:24:37;100516.17;;;4.37;42.96
64139;BME280;50435;43.700;-79.318;2023-04-19T12:27:05;100516.39;;;4.19;42.86
64139;BME280;50435;43.700;-79.318;2023-04-19T12:29:32;100509.79;;;4.42;43.32
64139;BME280;50435;43.700;-79.318;2023-04-19T12:32:00;100505.40;;;4.13;42.01
64139;BME280;50435;43.700;-79.318;2023-04-19T12:34:27;100503.98;;;4.67;41.93
64139;BME280;50435;43.700;-79.318;2023-04-19T12:36:55;100517.60;;;3.35;41.90
64139;BME280;50435;43.700;-79.318;2023-04-19T12:39:23;100523.29;;;4.60;41.60
64139;BME280;50435;43.700;-79.318;2023-04-19T12:41:50;100508.27;;;2.78;41.73
64139;BME280;50435;43.700;-79.318;2023-04-19T12:44:18;100505.04;;;4.25;42.76
64139;BME280;50435;43.700;-79.318;2023-04-19T12:46:46;100506.45;;;3.33;42.93